Zarajsk, Russia
Current Conditions -  °F | °C
As of 10:00 AM on Friday 28 Nov 2014 (Local Time) from UUDD Reporting Station
Haze Haze  
Wind Chill:   Ceiling: 10000
Heat Index: 12°   Visibility: 2.5mi
Dew Point: 10°   Wind: 4mph
Humidity: 92%   Direction: 100°E
Pressure: 30.56"   Gusts: NA
Location:  54.77°N, 38.88°E
Report Text: UUDD 280700Z 10002MPS 4000 BR BKN100 M11/M12 Q1035 6429009514290095 NOSIG
Loading
Personal Weather Stations






























Interactive Weather Map New forecast layout! Learn more

10-Day Weather Forecast

Advertisements
Track Severe Weather on mobile